sensor_id;sensor_type;location;lat;lon;timestamp;pressure;altitude;pressure_sealevel;temperature;humidity
46534;BME280;32260;52.008;4.752;2023-10-19T00:00:47;99255.47;;;13.68;80.61
46534;BME280;32260;52.008;4.752;2023-10-19T00:03:17;99268.16;;;13.79;80.18
46534;BME280;32260;52.008;4.752;2023-10-19T00:05:44;99265.25;;;13.83;79.84
46534;BME280;32260;52.008;4.752;2023-10-19T00:08:12;99268.47;;;13.88;80.24
46534;BME280;32260;52.008;4.752;2023-10-19T00:10:53;99259.91;;;13.83;80.71
46534;BME280;32260;52.008;4.752;2023-10-19T00:13:36;99261.06;;;13.94;80.24
46534;BME280;32260;52.008;4.752;2023-10-19T00:16:04;99262.59;;;13.98;79.93
46534;BME280;32260;52.008;4.752;2023-10-19T00:18:38;99258.91;;;14.00;80.43
46534;BME280;32260;52.008;4.752;2023-10-19T00:21:08;99256.16;;;14.02;80.89
46534;BME280;32260;52.008;4.752;2023-10-19T00:23:58;99238.84;;;14.09;80.44
46534;BME280;32260;52.008;4.752;2023-10-19T00:26:30;99254.16;;;14.05;80.54
46534;BME280;32260;52.008;4.752;2023-10-19T00:28:57;99249.31;;;14.12;80.44
46534;BME280;32260;52.008;4.752;2023-10-19T00:31:24;99242.06;;;14.14;80.56
46534;BME280;32260;52.008;4.752;2023-10-19T00:33:52;99246.47;;;14.15;80.33
46534;BME280;32260;52.008;4.752;2023-10-19T00:36:19;99248.28;;;14.15;81.01
46534;BME280;32260;52.008;4.752;2023-10-19T00:38:47;99245.16;;;14.22;80.77
46534;BME280;32260;52.008;4.752;2023-10-19T00:41:20;99238.09;;;14.21;81.47
46534;BME280;32260;52.008;4.752;2023-10-19T00:43:50;99244.78;;;14.29;81.16
46534;BME280;32260;52.008;4.752;2023-10-19T00:46:20;99235.63;;;14.33;80.90
46534;BME280;32260;52.008;4.752;2023-10-19T00:49:00;99239.84;;;14.37;81.09
46534;BME280;32260;52.008;4.752;2023-10-19T00:51:29;99233.53;;;14.38;81.41
46534;BME280;32260;52.008;4.752;2023-10-19T00:56:47;99238.31;;;14.47;80.90
46534;BME280;32260;52.008;4.752;2023-10-19T00:59:17;99236.59;;;14.46;81.47
46534;BME280;32260;52.008;4.752;2023-10-19T01:01:56;99241.66;;;14.51;81.23
46534;BME280;32260;52.008;4.752;2023-10-19T01:04:43;99238.78;;;14.54;81.22
46534;BME280;32260;52.008;4.752;2023-10-19T01:07:11;99240.50;;;14.55;81.69
46534;BME280;32260;52.008;4.752;2023-10-19T01:09:42;99239.28;;;14.61;81.08
46534;BME280;32260;52.008;4.752;2023-10-19T01:12:10;99243.66;;;14.62;81.42
46534;BME280;32260;52.008;4.752;2023-10-19T01:17:49;99244.81;;;14.72;82.07
46534;BME280;32260;52.008;4.752;2023-10-19T01:20:22;99243.66;;;14.76;82.20
46534;BME280;32260;52.008;4.752;2023-10-19T01:23:08;99241.94;;;14.90;82.41
46534;BME280;32260;52.008;4.752;2023-10-19T01:28:32;99232.22;;;14.88;82.67
46534;BME280;32260;52.008;4.752;2023-10-19T01:31:18;99245.53;;;15.03;82.33
46534;BME280;32260;52.008;4.752;2023-10-19T01:34:04;99231.44;;;15.01;83.08
46534;BME280;32260;52.008;4.752;2023-10-19T01:36:32;99237.31;;;15.06;83.82
46534;BME280;32260;52.008;4.752;2023-10-19T01:39:08;99238.03;;;15.23;83.77
46534;BME280;32260;52.008;4.752;2023-10-19T01:41:37;99236.91;;;15.27;85.69
46534;BME280;32260;52.008;4.752;2023-10-19T01:44:04;99240.63;;;15.51;85.22
46534;BME280;32260;52.008;4.752;2023-10-19T01:46:30;99240.94;;;15.60;85.62
46534;BME280;32260;52.008;4.752;2023-10-19T01:49:00;99235.25;;;15.79;84.06
46534;BME280;32260;52.008;4.752;2023-10-19T01:51:28;99239.88;;;15.90;84.37
46534;BME280;32260;52.008;4.752;2023-10-19T01:53:56;99239.34;;;15.97;84.54
46534;BME280;32260;52.008;4.752;2023-10-19T01:56:23;99235.19;;;16.06;83.58
46534;BME280;32260;52.008;4.752;2023-10-19T01:58:50;99229.66;;;16.09;83.62
46534;BME280;32260;52.008;4.752;2023-10-19T02:01:18;99232.03;;;16.14;83.78
46534;BME280;32260;52.008;4.752;2023-10-19T02:04:03;99225.59;;;16.16;83.62
46534;BME280;32260;52.008;4.752;2023-10-19T02:06:32;99232.66;;;16.17;82.58
46534;BME280;32260;52.008;4.752;2023-10-19T02:09:12;99228.41;;;16.15;83.62
46534;BME280;32260;52.008;4.752;2023-10-19T02:11:44;99227.09;;;16.21;83.25
46534;BME280;32260;52.008;4.752;2023-10-19T02:14:12;99224.53;;;16.19;83.57
46534;BME280;32260;52.008;4.752;2023-10-19T02:16:44;99221.31;;;16.27;84.04
46534;BME280;32260;52.008;4.752;2023-10-19T02:19:13;99219.19;;;16.32;82.81
46534;BME280;32260;52.008;4.752;2023-10-19T02:21:39;99220.25;;;16.29;83.61
46534;BME280;32260;52.008;4.752;2023-10-19T02:24:08;99218.34;;;16.31;83.61
46534;BME280;32260;52.008;4.752;2023-10-19T02:26:34;99214.47;;;16.36;83.43
46534;BME280;32260;52.008;4.752;2023-10-19T02:29:03;99214.28;;;16.39;83.13
46534;BME280;32260;52.008;4.752;2023-10-19T02:31:34;99204.19;;;16.42;82.99
46534;BME280;32260;52.008;4.752;2023-10-19T02:34:03;99208.69;;;16.42;83.29
46534;BME280;32260;52.008;4.752;2023-10-19T02:36:31;99210.94;;;16.48;82.35
46534;BME280;32260;52.008;4.752;2023-10-19T02:38:58;99209.34;;;16.45;82.84
46534;BME280;32260;52.008;4.752;2023-10-19T02:41:26;99205.72;;;16.46;82.68
46534;BME280;32260;52.008;4.752;2023-10-19T02:43:53;99205.47;;;16.49;82.05
46534;BME280;32260;52.008;4.752;2023-10-19T02:46:29;99205.47;;;16.49;82.39
46534;BME280;32260;52.008;4.752;2023-10-19T02:48:56;99194.78;;;16.49;82.06
46534;BME280;32260;52.008;4.752;2023-10-19T02:51:22;99200.06;;;16.51;81.94
46534;BME280;32260;52.008;4.752;2023-10-19T02:53:48;99200.78;;;16.53;81.94
46534;BME280;32260;52.008;4.752;2023-10-19T02:56:15;99199.94;;;16.53;81.51
46534;BME280;32260;52.008;4.752;2023-10-19T02:58:45;99198.22;;;16.52;81.34
46534;BME280;32260;52.008;4.752;2023-10-19T03:01:19;99197.03;;;16.56;81.50
46534;BME280;32260;52.008;4.752;2023-10-19T03:03:52;99191.91;;;16.53;81.40
46534;BME280;32260;52.008;4.752;2023-10-19T03:06:21;99191.91;;;16.53;81.27
46534;BME280;32260;52.008;4.752;2023-10-19T03:08:48;99191.16;;;16.50;81.45
46534;BME280;32260;52.008;4.752;2023-10-19T03:11:24;99187.00;;;16.46;81.07
46534;BME280;32260;52.008;4.752;2023-10-19T03:13:50;99187.19;;;16.43;81.47
46534;BME280;32260;52.008;4.752;2023-10-19T03:16:18;99188.91;;;16.44;81.39
46534;BME280;32260;52.008;4.752;2023-10-19T03:18:45;99190.94;;;16.41;81.68
46534;BME280;32260;52.008;4.752;2023-10-19T03:21:11;99194.38;;;16.43;80.90
46534;BME280;32260;52.008;4.752;2023-10-19T03:23:38;99182.94;;;16.41;81.51
46534;BME280;32260;52.008;4.752;2023-10-19T03:26:04;99186.47;;;16.41;81.17
46534;BME280;32260;52.008;4.752;2023-10-19T03:28:50;99193.50;;;16.42;81.22
46534;BME280;32260;52.008;4.752;2023-10-19T03:31:23;99197.91;;;16.43;81.33
46534;BME280;32260;52.008;4.752;2023-10-19T03:33:51;99184.75;;;16.40;81.15
46534;BME280;32260;52.008;4.752;2023-10-19T03:36:22;99186.91;;;16.35;81.50
46534;BME280;32260;52.008;4.752;2023-10-19T03:38:50;99186.47;;;16.28;81.07
46534;BME280;32260;52.008;4.752;2023-10-19T03:41:19;99180.72;;;16.22;81.36
46534;BME280;32260;52.008;4.752;2023-10-19T03:43:48;99187.44;;;16.14;81.41
46534;BME280;32260;52.008;4.752;2023-10-19T03:46:15;99178.78;;;16.11;80.92
46534;BME280;32260;52.008;4.752;2023-10-19T03:48:55;99187.56;;;16.00;81.05
46534;BME280;32260;52.008;4.752;2023-10-19T03:51:25;99189.91;;;15.92;81.30
46534;BME280;32260;52.008;4.752;2023-10-19T03:53:52;99183.78;;;15.90;80.91
46534;BME280;32260;52.008;4.752;2023-10-19T03:56:21;99179.63;;;15.85;80.85
46534;BME280;32260;52.008;4.752;2023-10-19T03:58:47;99175.63;;;15.78;80.77
46534;BME280;32260;52.008;4.752;2023-10-19T04:01:17;99186.44;;;15.77;80.91
46534;BME280;32260;52.008;4.752;2023-10-19T04:03:45;99166.25;;;15.73;80.79
46534;BME280;32260;52.008;4.752;2023-10-19T04:06:11;99178.19;;;15.67;80.47
46534;BME280;32260;52.008;4.752;2023-10-19T04:08:41;99184.06;;;15.72;80.53
46534;BME280;32260;52.008;4.752;2023-10-19T04:11:09;99186.19;;;15.67;80.83
46534;BME280;32260;52.008;4.752;2023-10-19T04:13:38;99184.06;;;15.72;80.90
46534;BME280;32260;52.008;4.752;2023-10-19T04:16:04;99186.63;;;15.74;80.79
46534;BME280;32260;52.008;4.752;2023-10-19T04:18:35;99191.31;;;15.70;80.82
46534;BME280;32260;52.008;4.752;2023-10-19T04:21:05;99189.63;;;15.69;80.87
46534;BME280;32260;52.008;4.752;2023-10-19T04:23:31;99196.25;;;15.76;80.52
46534;BME280;32260;52.008;4.752;2023-10-19T04:26:01;99192.84;;;15.74;80.88
46534;BME280;32260;52.008;4.752;2023-10-19T04:28:44;99193.03;;;15.71;80.43
46534;BME280;32260;52.008;4.752;2023-10-19T04:31:12;99189.00;;;15.78;80.61
46534;BME280;32260;52.008;4.752;2023-10-19T04:33:40;99192.41;;;15.80;80.24
46534;BME280;32260;52.008;4.752;2023-10-19T04:36:08;99193.47;;;15.78;80.60
46534;BME280;32260;52.008;4.752;2023-10-19T04:38:37;99187.91;;;15.81;80.49
46534;BME280;32260;52.008;4.752;2023-10-19T04:41:06;99204.63;;;15.84;80.11
46534;BME280;32260;52.008;4.752;2023-10-19T04:43:35;99186.88;;;15.83;80.32
46534;BME280;32260;52.008;4.752;2023-10-19T04:46:06;99193.75;;;15.88;80.11
46534;BME280;32260;52.008;4.752;2023-10-19T04:48:34;99189.56;;;15.83;80.17
46534;BME280;32260;52.008;4.752;2023-10-19T04:51:02;99196.03;;;15.79;80.26
46534;BME280;32260;52.008;4.752;2023-10-19T04:53:31;99204.63;;;15.84;79.88
46534;BME280;32260;52.008;4.752;2023-10-19T04:55:57;99194.81;;;15.85;79.88
46534;BME280;32260;52.008;4.752;2023-10-19T04:58:23;99187.66;;;15.85;79.72
46534;BME280;32260;52.008;4.752;2023-10-19T05:00:49;99187.84;;;15.82;79.85
46534;BME280;32260;52.008;4.752;2023-10-19T05:03:15;99184.22;;;15.83;79.76
46534;BME280;32260;52.008;4.752;2023-10-19T05:05:44;99196.81;;;15.81;79.88
46534;BME280;32260;52.008;4.752;2023-10-19T05:08:11;99201.00;;;15.85;79.79
46534;BME280;32260;52.008;4.752;2023-10-19T05:10:37;99196.50;;;15.86;79.83
46534;BME280;32260;52.008;4.752;2023-10-19T05:13:04;99202.06;;;15.83;79.77
46534;BME280;32260;52.008;4.752;2023-10-19T05:15:30;99206.34;;;15.85;79.82
46534;BME280;32260;52.008;4.752;2023-10-19T05:17:56;99204.63;;;15.84;79.84
46534;BME280;32260;52.008;4.752;2023-10-19T05:20:22;99206.13;;;15.89;79.93
46534;BME280;32260;52.008;4.752;2023-10-19T05:22:49;99198.09;;;15.89;80.00
46534;BME280;32260;52.008;4.752;2023-10-19T05:25:15;99197.25;;;15.88;79.69
46534;BME280;32260;52.008;4.752;2023-10-19T05:27:41;99209.78;;;15.88;79.55
46534;BME280;32260;52.008;4.752;2023-10-19T05:30:08;99198.09;;;15.89;79.91
46534;BME280;32260;52.008;4.752;2023-10-19T05:32:36;99212.34;;;15.89;79.65
46534;BME280;32260;52.008;4.752;2023-10-19T05:35:02;99207.09;;;15.88;79.64
46534;BME280;32260;52.008;4.752;2023-10-19T05:37:31;99214.78;;;15.92;79.79
46534;BME280;32260;52.008;4.752;2023-10-19T05:39:57;99215.53;;;15.94;79.52
46534;BME280;32260;52.008;4.752;2023-10-19T05:42:24;99204.00;;;15.94;79.75
46534;BME280;32260;52.008;4.752;2023-10-19T05:44:51;99212.75;;;15.96;79.27
46534;BME280;32260;52.008;4.752;2023-10-19T05:47:18;99208.28;;;15.96;79.38
46534;BME280;32260;52.008;4.752;2023-10-19T05:49:44;99205.69;;;15.95;79.19
46534;BME280;32260;52.008;4.752;2023-10-19T05:52:11;99216.38;;;15.95;79.42
46534;BME280;32260;52.008;4.752;2023-10-19T05:54:37;99212.09;;;15.92;79.25
46534;BME280;32260;52.008;4.752;2023-10-19T05:57:03;99212.09;;;15.92;79.16
46534;BME280;32260;52.008;4.752;2023-10-19T05:59:34;99214.69;;;15.94;79.06
46534;BME280;32260;52.008;4.752;2023-10-19T06:02:00;99209.34;;;15.94;79.37
46534;BME280;32260;52.008;4.752;2023-10-19T06:04:26;99214.88;;;15.91;79.32
46534;BME280;32260;52.008;4.752;2023-10-19T06:06:52;99213.19;;;15.90;79.34
46534;BME280;32260;52.008;4.752;2023-10-19T06:09:18;99203.38;;;15.90;79.03
46534;BME280;32260;52.008;4.752;2023-10-19T06:11:45;99217.03;;;15.85;79.32
46534;BME280;32260;52.008;4.752;2023-10-19T06:14:11;99226.94;;;15.83;79.39
46534;BME280;32260;52.008;4.752;2023-10-19T06:16:38;99220.66;;;15.84;79.21
46534;BME280;32260;52.008;4.752;2023-10-19T06:19:04;99222.38;;;15.85;79.39
46534;BME280;32260;52.008;4.752;2023-10-19T06:21:31;99226.75;;;15.87;79.18
46534;BME280;32260;52.008;4.752;2023-10-19T06:23:58;99227.59;;;15.87;79.31
46534;BME280;32260;52.008;4.752;2023-10-19T06:26:24;99224.28;;;15.83;79.51
46534;BME280;32260;52.008;4.752;2023-10-19T06:28:50;99234.75;;;15.87;79.30
46534;BME280;32260;52.008;4.752;2023-10-19T06:31:16;99235.41;;;15.90;79.22
46534;BME280;32260;52.008;4.752;2023-10-19T06:33:43;99237.31;;;15.88;79.28
46534;BME280;32260;52.008;4.752;2023-10-19T06:36:09;99242.44;;;15.91;79.47
46534;BME280;32260;52.008;4.752;2023-10-19T06:38:35;99238.81;;;15.92;79.29
46534;BME280;32260;52.008;4.752;2023-10-19T06:41:09;99244.06;;;15.94;79.47
46534;BME280;32260;52.008;4.752;2023-10-19T06:43:37;99245.69;;;15.96;79.58
46534;BME280;32260;52.008;4.752;2023-10-19T06:46:03;99247.47;;;15.96;79.69
46534;BME280;32260;52.008;4.752;2023-10-19T06:48:29;99249.97;;;15.99;79.74
46534;BME280;32260;52.008;4.752;2023-10-19T06:50:57;99255.06;;;16.02;79.46
46534;BME280;32260;52.008;4.752;2023-10-19T06:53:23;99245.88;;;16.06;79.36
46534;BME280;32260;52.008;4.752;2023-10-19T06:55:49;99244.19;;;16.05;79.79
46534;BME280;32260;52.008;4.752;2023-10-19T06:58:15;99243.97;;;16.08;79.88
46534;BME280;32260;52.008;4.752;2023-10-19T07:00:45;99251.03;;;16.09;79.85
46534;BME280;32260;52.008;4.752;2023-10-19T07:03:18;99249.78;;;16.15;79.82
46534;BME280;32260;52.008;4.752;2023-10-19T07:05:45;99246.34;;;16.13;79.61
46534;BME280;32260;52.008;4.752;2023-10-19T07:08:11;99248.69;;;16.17;79.77
46534;BME280;32260;52.008;4.752;2023-10-19T07:10:37;99256.38;;;16.22;79.63
46534;BME280;32260;52.008;4.752;2023-10-19T07:13:03;99257.97;;;16.25;79.82
46534;BME280;32260;52.008;4.752;2023-10-19T07:15:29;99251.47;;;16.29;79.57
46534;BME280;32260;52.008;4.752;2023-10-19T07:17:56;99255.66;;;16.33;79.54
46534;BME280;32260;52.008;4.752;2023-10-19T07:20:22;99267.94;;;16.36;79.68
46534;BME280;32260;52.008;4.752;2023-10-19T07:22:53;99265.50;;;16.32;79.58
46534;BME280;32260;52.008;4.752;2023-10-19T07:25:20;99268.34;;;16.42;79.28
46534;BME280;32260;52.008;4.752;2023-10-19T07:27:48;99264.53;;;16.46;79.44
46534;BME280;32260;52.008;4.752;2023-10-19T07:30:16;99260.91;;;16.47;79.25
46534;BME280;32260;52.008;4.752;2023-10-19T07:32:49;99258.94;;;16.49;79.41
46534;BME280;32260;52.008;4.752;2023-10-19T07:35:35;99262.16;;;16.55;79.07
46534;BME280;32260;52.008;4.752;2023-10-19T07:38:03;99255.31;;;16.50;79.27
46534;BME280;32260;52.008;4.752;2023-10-19T07:40:30;99259.47;;;16.55;79.08
46534;BME280;32260;52.008;4.752;2023-10-19T07:42:56;99253.16;;;16.56;79.17
46534;BME280;32260;52.008;4.752;2023-10-19T07:45:22;99256.59;;;16.58;78.96
46534;BME280;32260;52.008;4.752;2023-10-19T07:47:49;99255.53;;;16.60;78.89
46534;BME280;32260;52.008;4.752;2023-10-19T07:50:15;99251.78;;;16.63;79.11
46534;BME280;32260;52.008;4.752;2023-10-19T07:52:46;99250.94;;;16.62;79.08
46534;BME280;32260;52.008;4.752;2023-10-19T07:55:15;99259.69;;;16.64;79.09
46534;BME280;32260;52.008;4.752;2023-10-19T07:57:41;99264.06;;;16.65;78.83
46534;BME280;32260;52.008;4.752;2023-10-19T08:00:12;99266.44;;;16.70;79.01
46534;BME280;32260;52.008;4.752;2023-10-19T08:02:40;99261.81;;;16.72;79.03
46534;BME280;32260;52.008;4.752;2023-10-19T08:05:08;99259.91;;;16.74;78.83
46534;BME280;32260;52.008;4.752;2023-10-19T08:07:34;99260.53;;;16.78;78.78
46534;BME280;32260;52.008;4.752;2023-10-19T08:10:02;99258.50;;;16.81;78.88
46534;BME280;32260;52.008;4.752;2023-10-19T08:12:31;99256.34;;;16.87;78.61
46534;BME280;32260;52.008;4.752;2023-10-19T08:14:58;99257.31;;;16.86;78.84
46534;BME280;32260;52.008;4.752;2023-10-19T08:17:25;99258.81;;;16.90;78.70
46534;BME280;32260;52.008;4.752;2023-10-19T08:19:51;99254.03;;;16.95;78.81
46534;BME280;32260;52.008;4.752;2023-10-19T08:22:17;99250.38;;;16.96;78.80
46534;BME280;32260;52.008;4.752;2023-10-19T08:24:44;99250.91;;;17.01;78.61
46534;BME280;32260;52.008;4.752;2023-10-19T08:27:12;99248.00;;;17.04;78.67
46534;BME280;32260;52.008;4.752;2023-10-19T08:29:39;99245.19;;;17.06;78.69
46534;BME280;32260;52.008;4.752;2023-10-19T08:32:05;99243.06;;;17.11;78.46
46534;BME280;32260;52.008;4.752;2023-10-19T08:34:36;99245.16;;;17.19;78.59
46534;BME280;32260;52.008;4.752;2023-10-19T08:37:02;99237.78;;;17.22;78.73
46534;BME280;32260;52.008;4.752;2023-10-19T08:39:32;99240.84;;;17.29;78.80
46534;BME280;32260;52.008;4.752;2023-10-19T08:42:08;99240.63;;;17.32;78.74
46534;BME280;32260;52.008;4.752;2023-10-19T08:44:36;99242.63;;;17.41;78.85
46534;BME280;32260;52.008;4.752;2023-10-19T08:47:02;99236.69;;;17.49;78.84
46534;BME280;32260;52.008;4.752;2023-10-19T08:49:31;99244.13;;;17.57;78.71
46534;BME280;32260;52.008;4.752;2023-10-19T08:51:59;99246.03;;;17.68;79.06
46534;BME280;32260;52.008;4.752;2023-10-19T08:54:29;99247.66;;;17.82;79.08
46534;BME280;32260;52.008;4.752;2023-10-19T08:56:55;99248.25;;;17.98;79.02
46534;BME280;32260;52.008;4.752;2023-10-19T08:59:22;99246.09;;;18.15;78.85
46534;BME280;32260;52.008;4.752;2023-10-19T09:01:49;99244.16;;;18.28;78.52
46534;BME280;32260;52.008;4.752;2023-10-19T09:04:15;99244.78;;;18.43;78.34
46534;BME280;32260;52.008;4.752;2023-10-19T09:06:42;99248.81;;;18.49;77.70
46534;BME280;32260;52.008;4.752;2023-10-19T09:09:10;99247.59;;;18.53;76.73
46534;BME280;32260;52.008;4.752;2023-10-19T09:11:43;99236.50;;;18.69;76.55
46534;BME280;32260;52.008;4.752;2023-10-19T09:14:09;99243.34;;;18.73;76.37
46534;BME280;32260;52.008;4.752;2023-10-19T09:16:41;99248.81;;;18.71;75.28
46534;BME280;32260;52.008;4.752;2023-10-19T09:19:20;99231.25;;;18.79;74.78
46534;BME280;32260;52.008;4.752;2023-10-19T09:21:46;99230.53;;;18.88;75.06
46534;BME280;32260;52.008;4.752;2023-10-19T09:24:12;99227.13;;;18.97;73.98
46534;BME280;32260;52.008;4.752;2023-10-19T09:26:39;99228.69;;;19.11;74.35
46534;BME280;32260;52.008;4.752;2023-10-19T09:29:06;99217.81;;;19.13;73.36
46534;BME280;32260;52.008;4.752;2023-10-19T09:31:33;99223.69;;;19.18;74.11
46534;BME280;32260;52.008;4.752;2023-10-19T09:34:01;99219.50;;;19.14;72.72
46534;BME280;32260;52.008;4.752;2023-10-19T09:36:31;99218.69;;;19.13;72.72
46534;BME280;32260;52.008;4.752;2023-10-19T09:38:58;99218.91;;;19.10;72.75
46534;BME280;32260;52.008;4.752;2023-10-19T09:41:24;99215.25;;;19.11;72.91
46534;BME280;32260;52.008;4.752;2023-10-19T09:44:01;99209.53;;;19.16;73.60
46534;BME280;32260;52.008;4.752;2023-10-19T09:46:32;99212.69;;;19.10;72.21
46534;BME280;32260;52.008;4.752;2023-10-19T09:49:00;99205.50;;;19.10;72.19
46534;BME280;32260;52.008;4.752;2023-10-19T09:51:26;99199.16;;;19.11;72.63
46534;BME280;32260;52.008;4.752;2023-10-19T09:54:00;99201.47;;;19.16;72.45
46534;BME280;32260;52.008;4.752;2023-10-19T09:56:35;99208.53;;;19.17;72.99
46534;BME280;32260;52.008;4.752;2023-10-19T09:59:05;99205.72;;;19.18;72.43
46534;BME280;32260;52.008;4.752;2023-10-19T10:02:24;99205.81;;;19.28;72.41
46534;BME280;32260;52.008;4.752;2023-10-19T10:04:39;99209.53;;;19.16;71.54
46534;BME280;32260;52.008;4.752;2023-10-19T10:07:07;99203.38;;;19.25;71.97
46534;BME280;32260;52.008;4.752;2023-10-19T10:09:37;99201.66;;;19.35;72.26
46534;BME280;32260;52.008;4.752;2023-10-19T10:12:26;99204.81;;;19.40;72.02
46534;BME280;32260;52.008;4.752;2023-10-19T10:17:34;99191.41;;;19.62;72.19
46534;BME280;32260;52.008;4.752;2023-10-19T10:23:19;99196.44;;;19.76;71.08
46534;BME280;32260;52.008;4.752;2023-10-19T10:25:51;99200.25;;;19.73;71.02
46534;BME280;32260;52.008;4.752;2023-10-19T10:28:20;99182.91;;;19.78;71.02
46534;BME280;32260;52.008;4.752;2023-10-19T10:31:09;99173.31;;;19.96;70.44
46534;BME280;32260;52.008;4.752;2023-10-19T10:33:41;99183.50;;;20.02;70.05
46534;BME280;32260;52.008;4.752;2023-10-19T10:36:08;99188.19;;;20.00;69.78
46534;BME280;32260;52.008;4.752;2023-10-19T10:38:35;99186.84;;;20.16;70.62
46534;BME280;32260;52.008;4.752;2023-10-19T10:41:01;99192.13;;;20.27;70.18
46534;BME280;32260;52.008;4.752;2023-10-19T10:43:28;99183.09;;;20.28;69.87
46534;BME280;32260;52.008;4.752;2023-10-19T10:46:09;99187.69;;;20.38;69.62
46534;BME280;32260;52.008;4.752;2023-10-19T10:48:41;99193.84;;;20.28;67.55
46534;BME280;32260;52.008;4.752;2023-10-19T10:51:25;99191.06;;;20.40;68.04
46534;BME280;32260;52.008;4.752;2023-10-19T10:53:54;99187.78;;;20.36;68.40
46534;BME280;32260;52.008;4.752;2023-10-19T10:56:22;99182.56;;;20.34;67.83
46534;BME280;32260;52.008;4.752;2023-10-19T10:58:49;99190.63;;;20.34;68.39
46534;BME280;32260;52.008;4.752;2023-10-19T11:01:28;99178.34;;;20.42;69.03
46534;BME280;32260;52.008;4.752;2023-10-19T11:04:11;99183.81;;;20.30;69.08
46534;BME280;32260;52.008;4.752;2023-10-19T11:06:48;99180.22;;;20.20;68.43
46534;BME280;32260;52.008;4.752;2023-10-19T11:09:15;99187.47;;;20.29;68.39
46534;BME280;32260;52.008;4.752;2023-10-19T11:11:45;99184.41;;;20.34;68.95
46534;BME280;32260;52.008;4.752;2023-10-19T11:14:12;99185.38;;;20.33;68.31
46534;BME280;32260;52.008;4.752;2023-10-19T11:16:38;99179.13;;;20.32;68.41
46534;BME280;32260;52.008;4.752;2023-10-19T11:19:08;99182.56;;;20.34;68.74
46534;BME280;32260;52.008;4.752;2023-10-19T11:21:35;99181.19;;;20.40;68.57
46534;BME280;32260;52.008;4.752;2023-10-19T11:24:01;99185.59;;;20.51;69.23
46534;BME280;32260;52.008;4.752;2023-10-19T11:26:28;99180.69;;;20.56;68.19
46534;BME280;32260;52.008;4.752;2023-10-19T11:29:00;99168.03;;;20.78;68.97
46534;BME280;32260;52.008;4.752;2023-10-19T11:31:27;99163.81;;;20.95;68.86
46534;BME280;32260;52.008;4.752;2023-10-19T11:33:54;99156.88;;;21.12;67.80
46534;BME280;32260;52.008;4.752;2023-10-19T11:36:22;99151.38;;;21.33;67.87
46534;BME280;32260;52.008;4.752;2023-10-19T11:38:51;99151.09;;;21.46;65.92
46534;BME280;32260;52.008;4.752;2023-10-19T11:41:18;99140.31;;;21.46;64.39
46534;BME280;32260;52.008;4.752;2023-10-19T11:43:45;99138.63;;;21.45;64.64
46534;BME280;32260;52.008;4.752;2023-10-19T11:46:12;99129.41;;;21.38;64.31
46534;BME280;32260;52.008;4.752;2023-10-19T11:48:39;99126.72;;;21.38;65.91
46534;BME280;32260;52.008;4.752;2023-10-19T11:51:06;99138.34;;;21.28;65.22
46534;BME280;32260;52.008;4.752;2023-10-19T11:53:34;99130.69;;;21.24;65.28
46534;BME280;32260;52.008;4.752;2023-10-19T11:56:02;99128.13;;;21.22;66.23
46534;BME280;32260;52.008;4.752;2023-10-19T11:58:30;99124.44;;;21.13;66.21
46534;BME280;32260;52.008;4.752;2023-10-19T12:00:58;99127.13;;;21.04;65.23
46534;BME280;32260;52.008;4.752;2023-10-19T12:03:25;99122.44;;;21.06;66.28
46534;BME280;32260;52.008;4.752;2023-10-19T12:05:51;99119.06;;;21.04;65.89
46534;BME280;32260;52.008;4.752;2023-10-19T12:08:19;99119.88;;;20.94;65.64
46534;BME280;32260;52.008;4.752;2023-10-19T12:10:45;99115.38;;;20.95;66.05
46534;BME280;32260;52.008;4.752;2023-10-19T12:13:11;99117.91;;;20.96;66.96
46534;BME280;32260;52.008;4.752;2023-10-19T12:15:38;99126.81;;;20.87;66.37
46534;BME280;32260;52.008;4.752;2023-10-19T12:18:04;99121.84;;;20.73;64.84
46534;BME280;32260;52.008;4.752;2023-10-19T12:20:31;99118.78;;;20.66;65.53
46534;BME280;32260;52.008;4.752;2023-10-19T12:22:58;99109.44;;;20.60;66.43
46534;BME280;32260;52.008;4.752;2023-10-19T12:25:25;99106.44;;;20.53;66.43
46534;BME280;32260;52.008;4.752;2023-10-19T12:27:58;99105.44;;;20.45;66.83
46534;BME280;32260;52.008;4.752;2023-10-19T12:30:25;99099.91;;;20.36;66.95
46534;BME280;32260;52.008;4.752;2023-10-19T12:33:00;99098.00;;;20.27;67.12
46534;BME280;32260;52.008;4.752;2023-10-19T12:35:27;99095.84;;;20.21;67.47
46534;BME280;32260;52.008;4.752;2023-10-19T12:38:13;99097.53;;;20.12;68.15
46534;BME280;32260;52.008;4.752;2023-10-19T12:40:43;99091.72;;;20.07;68.36
46534;BME280;32260;52.008;4.752;2023-10-19T12:43:10;99091.84;;;20.06;68.23
46534;BME280;32260;52.008;4.752;2023-10-19T12:45:36;99106.34;;;19.93;68.14
46534;BME280;32260;52.008;4.752;2023-10-19T12:48:04;99103.66;;;19.93;68.14
46534;BME280;32260;52.008;4.752;2023-10-19T12:50:31;99108.31;;;19.91;68.50
46534;BME280;32260;52.008;4.752;2023-10-19T12:52:57;99096.88;;;19.89;68.58
46534;BME280;32260;52.008;4.752;2023-10-19T12:55:23;99097.13;;;19.86;68.87
46534;BME280;32260;52.008;4.752;2023-10-19T12:57:55;99094.81;;;19.81;69.05
46534;BME280;32260;52.008;4.752;2023-10-19T13:00:23;99095.81;;;19.80;69.02
46534;BME280;32260;52.008;4.752;2023-10-19T13:02:50;99085.16;;;19.79;69.29
46534;BME280;32260;52.008;4.752;2023-10-19T13:05:17;99082.31;;;19.70;69.72
46534;BME280;32260;52.008;4.752;2023-10-19T13:07:46;99079.47;;;19.72;69.57
46534;BME280;32260;52.008;4.752;2023-10-19T13:10:12;99075.22;;;19.69;69.80
46534;BME280;32260;52.008;4.752;2023-10-19T13:12:38;99074.25;;;19.70;69.92
46534;BME280;32260;52.008;4.752;2023-10-19T13:15:05;99077.19;;;19.67;69.96
46534;BME280;32260;52.008;4.752;2023-10-19T13:17:39;99077.06;;;19.69;70.03
46534;BME280;32260;52.008;4.752;2023-10-19T13:20:06;99080.59;;;19.69;70.03
46534;BME280;32260;52.008;4.752;2023-10-19T13:22:42;99082.03;;;19.73;69.83
46534;BME280;32260;52.008;4.752;2023-10-19T13:25:09;99085.97;;;19.69;70.22